createdAt,value
2022-12-08T00:01:10.316Z,2.65
2022-12-08T00:03:37.712Z,2.68
2022-12-08T00:06:24.442Z,2.70
2022-12-08T00:09:10.306Z,2.72
2022-12-08T00:11:37.200Z,2.71
2022-12-08T00:14:03.632Z,2.72
2022-12-08T00:16:30.143Z,2.73
2022-12-08T00:18:56.574Z,2.74
2022-12-08T00:21:22.904Z,2.76
2022-12-08T00:23:49.308Z,2.76
2022-12-08T00:26:15.707Z,2.80
2022-12-08T00:28:42.164Z,2.83
2022-12-08T00:31:10.301Z,2.83
2022-12-08T00:33:36.869Z,2.81
2022-12-08T00:36:11.938Z,2.81
2022-12-08T00:38:39.700Z,2.79
2022-12-08T00:41:13.534Z,2.79
2022-12-08T00:43:39.992Z,2.78
2022-12-08T00:46:06.511Z,2.77
2022-12-08T00:48:33.030Z,2.75
2022-12-08T00:50:59.382Z,2.73
2022-12-08T00:53:25.751Z,2.69
2022-12-08T00:55:52.089Z,2.70
2022-12-08T00:58:18.463Z,2.69
2022-12-08T01:00:44.895Z,2.68
2022-12-08T01:03:12.587Z,2.67
2022-12-08T01:05:39.656Z,2.65
2022-12-08T01:08:07.248Z,2.64
2022-12-08T01:10:38.353Z,2.63
2022-12-08T01:13:05.176Z,2.63
2022-12-08T01:15:31.550Z,2.65
2022-12-08T01:17:57.962Z,2.67
2022-12-08T01:20:24.430Z,2.69
2022-12-08T01:22:50.851Z,2.72
2022-12-08T01:25:17.437Z,2.73
2022-12-08T01:27:43.811Z,2.73
2022-12-08T01:30:10.623Z,2.73
2022-12-08T01:32:36.982Z,2.73
2022-12-08T01:35:03.541Z,2.72
2022-12-08T01:37:29.974Z,2.72
2022-12-08T01:39:56.309Z,2.75
2022-12-08T01:42:23.418Z,2.79
2022-12-08T01:44:54.908Z,2.77
2022-12-08T01:47:24.327Z,2.80
2022-12-08T01:49:50.988Z,2.80
2022-12-08T01:52:29.062Z,2.78
2022-12-08T01:55:05.271Z,2.77
2022-12-08T01:57:36.053Z,2.79
2022-12-08T02:00:08.833Z,2.75
2022-12-08T02:02:52.517Z,2.72
2022-12-08T02:05:22.546Z,2.71
2022-12-08T02:07:49.999Z,2.72
2022-12-08T02:10:20.939Z,2.70
2022-12-08T02:12:50.540Z,2.72
2022-12-08T02:15:18.463Z,2.71
2022-12-08T02:17:56.967Z,2.71
2022-12-08T02:20:37.781Z,2.70
2022-12-08T02:23:23.593Z,2.71
2022-12-08T02:26:19.405Z,2.71
2022-12-08T02:29:04.091Z,2.71
2022-12-08T02:32:07.803Z,2.69
2022-12-08T02:34:49.500Z,2.68
2022-12-08T02:37:40.811Z,2.70
2022-12-08T02:40:13.252Z,2.71
2022-12-08T02:42:58.634Z,2.71
2022-12-08T02:45:41.579Z,2.72
2022-12-08T02:48:09.138Z,2.71
2022-12-08T02:50:35.612Z,2.72
2022-12-08T02:53:03.860Z,2.73
2022-12-08T02:56:00.363Z,2.73
2022-12-08T02:58:50.308Z,2.74
2022-12-08T03:01:28.201Z,2.73
2022-12-08T03:04:20.836Z,2.74
2022-12-08T03:07:06.167Z,2.75
2022-12-08T03:09:46.732Z,2.75
2022-12-08T03:12:31.219Z,2.76
2022-12-08T03:15:02.269Z,2.79
2022-12-08T03:17:31.055Z,2.81
2022-12-08T03:20:02.222Z,2.83
2022-12-08T03:22:29.171Z,2.86
2022-12-08T03:24:56.887Z,2.88
2022-12-08T03:27:29.426Z,2.88
2022-12-08T03:29:57.858Z,2.89
2022-12-08T03:32:35.167Z,2.93
2022-12-08T03:35:05.682Z,2.94
2022-12-08T03:37:35.626Z,2.94
2022-12-08T03:40:03.793Z,2.93
2022-12-08T03:42:30.358Z,2.95
2022-12-08T03:44:56.838Z,2.96
2022-12-08T03:47:23.267Z,2.92
2022-12-08T03:49:49.659Z,2.91
2022-12-08T03:52:16.091Z,2.89
2022-12-08T03:54:42.535Z,2.87
2022-12-08T03:57:08.929Z,2.88
2022-12-08T03:59:35.287Z,2.88
2022-12-08T04:02:01.673Z,2.87
2022-12-08T04:04:28.026Z,2.83
2022-12-08T04:06:54.424Z,2.83
2022-12-08T04:09:20.775Z,2.81
2022-12-08T04:11:47.154Z,2.83
2022-12-08T04:14:13.593Z,2.83
2022-12-08T04:16:40.057Z,2.83
2022-12-08T04:19:06.651Z,2.82
2022-12-08T04:21:33.296Z,2.83
2022-12-08T04:24:01.544Z,2.81
2022-12-08T04:26:28.206Z,2.76
2022-12-08T04:28:54.643Z,2.73
2022-12-08T04:31:21.135Z,2.72
2022-12-08T04:33:48.612Z,2.72
2022-12-08T04:36:15.126Z,2.75
2022-12-08T04:38:41.528Z,2.78
2022-12-08T04:41:07.979Z,2.80
2022-12-08T04:43:35.641Z,2.79
2022-12-08T04:46:02.017Z,2.80
2022-12-08T04:48:28.398Z,2.78
2022-12-08T04:50:54.844Z,2.79
2022-12-08T04:53:21.330Z,2.80
2022-12-08T04:55:49.636Z,2.80
2022-12-08T04:58:18.434Z,2.80
2022-12-08T05:00:46.368Z,2.78
2022-12-08T05:03:13.717Z,2.78
2022-12-08T05:05:41.454Z,2.80
2022-12-08T05:08:09.283Z,2.80
2022-12-08T05:10:36.191Z,2.80
2022-12-08T05:13:02.582Z,2.82
2022-12-08T05:15:28.913Z,2.81
2022-12-08T05:17:55.300Z,2.80
2022-12-08T05:20:21.961Z,2.77
2022-12-08T05:22:48.308Z,2.75
2022-12-08T05:25:14.986Z,2.74
2022-12-08T05:27:41.985Z,2.74
2022-12-08T05:30:08.690Z,2.72
2022-12-08T05:32:35.011Z,2.69
2022-12-08T05:35:01.379Z,2.70
2022-12-08T05:37:27.766Z,2.70
2022-12-08T05:39:54.217Z,2.70
2022-12-08T05:42:24.570Z,2.68
2022-12-08T05:44:51.499Z,2.64
2022-12-08T05:47:17.837Z,2.62
2022-12-08T05:49:44.862Z,2.59
2022-12-08T05:52:11.267Z,2.59
2022-12-08T05:54:38.079Z,2.61
2022-12-08T05:57:04.479Z,2.60
2022-12-08T05:59:30.929Z,2.63
2022-12-08T06:01:57.358Z,2.65
2022-12-08T06:04:23.726Z,2.64
2022-12-08T06:06:50.182Z,2.66
2022-12-08T06:09:16.594Z,2.67
2022-12-08T06:11:43.023Z,2.66
2022-12-08T06:14:13.327Z,2.67
2022-12-08T06:16:40.001Z,2.65
2022-12-08T06:19:06.492Z,2.67
2022-12-08T06:21:32.931Z,2.64
2022-12-08T06:23:59.363Z,2.60
2022-12-08T06:26:25.738Z,2.60
2022-12-08T06:28:52.317Z,2.62
2022-12-08T06:31:22.152Z,2.63
2022-12-08T06:33:49.281Z,2.65
2022-12-08T06:36:18.634Z,2.68
2022-12-08T06:38:45.043Z,2.68
2022-12-08T06:41:12.481Z,2.64
2022-12-08T06:43:39.467Z,2.58
2022-12-08T06:46:08.400Z,2.58
2022-12-08T06:48:34.882Z,2.56
2022-12-08T06:51:09.646Z,2.53
2022-12-08T06:53:36.038Z,2.51
2022-12-08T06:56:02.467Z,2.52
2022-12-08T06:58:28.936Z,2.53
2022-12-08T07:00:55.512Z,2.45
2022-12-08T07:03:21.945Z,2.42
2022-12-08T07:05:48.620Z,2.42
2022-12-08T07:08:15.074Z,2.37
2022-12-08T07:10:41.601Z,2.34
2022-12-08T07:13:07.972Z,2.28
2022-12-08T07:15:34.384Z,2.27
2022-12-08T07:18:00.937Z,2.23
2022-12-08T07:20:27.912Z,2.20
2022-12-08T07:22:54.599Z,2.16
2022-12-08T07:25:21.236Z,2.18
2022-12-08T07:27:48.153Z,2.14
2022-12-08T07:30:14.950Z,2.14
2022-12-08T07:32:41.375Z,2.13
2022-12-08T07:35:08.798Z,2.13
2022-12-08T07:37:37.352Z,2.11
2022-12-08T07:40:05.727Z,2.12
2022-12-08T07:42:32.673Z,2.13
2022-12-08T07:44:59.404Z,2.13
2022-12-08T07:47:25.751Z,2.13
2022-12-08T07:49:52.116Z,2.04
2022-12-08T07:52:18.536Z,1.98
2022-12-08T07:54:44.910Z,1.95
2022-12-08T07:57:11.372Z,1.96
2022-12-08T07:59:37.739Z,2.01
2022-12-08T08:02:22.694Z,1.97
2022-12-08T08:04:51.005Z,1.93
2022-12-08T08:07:17.557Z,1.95
2022-12-08T08:09:43.993Z,1.95
2022-12-08T08:12:30.175Z,1.91
2022-12-08T08:14:56.779Z,1.93
2022-12-08T08:17:23.223Z,1.95
2022-12-08T08:19:49.728Z,1.95
2022-12-08T08:22:16.122Z,1.94
2022-12-08T08:24:45.073Z,1.96
2022-12-08T08:27:12.185Z,2.00
2022-12-08T08:29:38.635Z,1.96
2022-12-08T08:32:05.573Z,1.99
2022-12-08T08:34:31.895Z,2.01
2022-12-08T08:36:58.389Z,2.03
2022-12-08T08:39:24.866Z,2.07
2022-12-08T08:41:51.227Z,2.07
2022-12-08T08:44:17.659Z,2.06
2022-12-08T08:46:44.225Z,2.04
2022-12-08T08:49:10.604Z,2.07
2022-12-08T08:51:36.952Z,2.10
2022-12-08T08:54:03.307Z,2.09
2022-12-08T08:56:30.480Z,2.10
2022-12-08T08:58:57.038Z,2.14
2022-12-08T09:01:26.858Z,2.12
2022-12-08T09:03:54.403Z,2.08
2022-12-08T09:06:22.043Z,2.02
2022-12-08T09:08:48.811Z,2.02
2022-12-08T09:11:15.900Z,2.01
2022-12-08T09:13:42.344Z,2.05
2022-12-08T09:16:09.592Z,2.07
2022-12-08T09:18:35.999Z,2.08
2022-12-08T09:21:10.223Z,2.12
2022-12-08T09:23:37.100Z,2.20
2022-12-08T09:26:05.033Z,2.17
2022-12-08T09:28:32.142Z,2.19
2022-12-08T09:30:58.653Z,2.19
2022-12-08T09:33:25.254Z,2.24
2022-12-08T09:35:51.618Z,2.22
2022-12-08T09:38:18.364Z,2.25
2022-12-08T09:40:52.991Z,2.25
2022-12-08T09:43:25.247Z,2.28
2022-12-08T09:45:52.382Z,2.33
2022-12-08T09:48:23.217Z,2.37
2022-12-08T09:50:57.241Z,2.41
2022-12-08T09:53:35.891Z,2.44
2022-12-08T09:56:08.967Z,2.44
2022-12-08T09:58:53.705Z,2.46
2022-12-08T10:01:27.472Z,2.47
2022-12-08T10:03:55.933Z,2.53
2022-12-08T10:06:38.454Z,2.55
2022-12-08T10:09:22.949Z,2.60
2022-12-08T10:12:04.780Z,2.64
2022-12-08T10:14:41.192Z,2.64
2022-12-08T10:17:24.187Z,2.66
2022-12-08T10:19:57.547Z,2.68
2022-12-08T10:22:26.735Z,2.71
2022-12-08T10:25:01.138Z,2.71
2022-12-08T10:27:27.977Z,2.74
2022-12-08T10:29:54.363Z,2.76
2022-12-08T10:32:24.258Z,2.79
2022-12-08T10:35:08.908Z,2.81
2022-12-08T10:37:36.068Z,2.81
2022-12-08T10:40:08.936Z,2.79
2022-12-08T10:42:39.693Z,2.79
2022-12-08T10:45:09.160Z,2.80
2022-12-08T10:47:38.244Z,2.80
2022-12-08T10:50:44.393Z,2.81
2022-12-08T10:53:25.127Z,2.82
2022-12-08T10:56:05.203Z,2.82
2022-12-08T10:58:36.039Z,2.82
2022-12-08T11:01:11.918Z,2.85
2022-12-08T11:03:58.276Z,2.88
2022-12-08T11:06:34.343Z,2.89
2022-12-08T11:09:04.572Z,2.84
2022-12-08T11:12:06.018Z,2.85
2022-12-08T11:14:46.195Z,2.83
2022-12-08T11:17:15.876Z,2.80
2022-12-08T11:19:45.330Z,2.79
2022-12-08T11:22:37.444Z,2.76
2022-12-08T11:25:21.473Z,2.72
2022-12-08T11:27:50.511Z,2.66
2022-12-08T11:30:19.734Z,2.58
2022-12-08T11:32:50.851Z,2.56
2022-12-08T11:35:34.514Z,2.56
2022-12-08T11:38:22.674Z,2.52
2022-12-08T11:41:03.307Z,2.56
2022-12-08T11:43:48.272Z,2.47
2022-12-08T11:46:21.242Z,2.43
2022-12-08T11:49:02.736Z,2.45
2022-12-08T11:51:37.297Z,2.54
2022-12-08T11:54:11.359Z,2.52
2022-12-08T11:56:46.865Z,2.52
2022-12-08T11:59:29.398Z,2.53
2022-12-08T12:02:01.965Z,2.56
2022-12-08T12:04:37.423Z,2.58
2022-12-08T12:07:24.588Z,2.62
2022-12-08T12:10:12.648Z,2.64
2022-12-08T12:13:00.690Z,2.64
2022-12-08T12:15:51.321Z,2.68
2022-12-08T12:18:41.040Z,2.62
2022-12-08T12:21:18.358Z,2.66
2022-12-08T12:23:57.196Z,2.71
2022-12-08T12:26:31.087Z,2.73
2022-12-08T12:28:57.436Z,2.89
2022-12-08T12:31:47.251Z,2.97
2022-12-08T12:34:30.432Z,2.86
2022-12-08T12:37:12.918Z,2.82
2022-12-08T12:40:00.139Z,2.80
2022-12-08T12:42:40.710Z,2.77
2022-12-08T12:45:29.815Z,2.71
2022-12-08T12:47:57.092Z,2.83
2022-12-08T12:50:41.572Z,2.83
2022-12-08T12:53:17.271Z,2.99
2022-12-08T12:55:56.013Z,3.19
2022-12-08T12:58:28.469Z,3.15
2022-12-08T13:01:10.056Z,3.10
2022-12-08T13:03:42.558Z,3.08
2022-12-08T13:06:14.820Z,3.20
2022-12-08T13:08:50.954Z,3.16
2022-12-08T13:11:17.822Z,3.18
2022-12-08T13:13:59.098Z,3.10
2022-12-08T13:16:27.817Z,2.98
2022-12-08T13:19:05.527Z,3.02
2022-12-08T13:21:35.783Z,3.03
2022-12-08T13:24:14.158Z,2.98
2022-12-08T13:26:48.928Z,2.96
2022-12-08T13:29:26.013Z,2.99
2022-12-08T13:31:52.365Z,2.94
2022-12-08T13:34:34.024Z,2.93
2022-12-08T13:37:13.496Z,2.89
2022-12-08T13:39:39.856Z,2.80
2022-12-08T13:42:06.283Z,2.79
2022-12-08T13:48:20.464Z,2.76
2022-12-08T13:59:34.684Z,2.90
2022-12-08T14:02:14.906Z,2.95
2022-12-08T14:05:16.982Z,2.97
2022-12-08T14:07:33.658Z,2.99
2022-12-08T14:10:03.466Z,3.08
2022-12-08T14:12:31.453Z,3.16
2022-12-08T14:15:06.504Z,3.19
2022-12-08T14:17:33.589Z,3.10
2022-12-08T14:20:19.851Z,3.12
2022-12-08T14:22:46.825Z,3.13
2022-12-08T14:25:15.843Z,3.08
2022-12-08T14:27:43.279Z,3.09
2022-12-08T14:30:18.321Z,3.04
2022-12-08T14:32:48.905Z,3.04
2022-12-08T14:35:30.051Z,3.03
2022-12-08T14:38:12.118Z,2.99
2022-12-08T14:40:39.754Z,2.96
2022-12-08T14:43:20.371Z,2.99
2022-12-08T14:45:48.003Z,2.97
2022-12-08T14:48:39.506Z,2.99
2022-12-08T14:51:11.687Z,2.97
2022-12-08T14:53:41.441Z,2.92
2022-12-08T14:56:20.188Z,2.88
2022-12-08T14:58:49.054Z,2.80
2022-12-08T15:01:21.581Z,2.73
2022-12-08T15:03:51.149Z,2.69
2022-12-08T15:06:22.009Z,2.68
2022-12-08T15:08:55.286Z,2.67
2022-12-08T15:11:21.710Z,2.59
2022-12-08T15:13:51.115Z,2.56
2022-12-08T15:16:36.019Z,2.54
2022-12-08T15:19:16.457Z,2.52
2022-12-08T15:21:45.735Z,2.49
2022-12-08T15:24:14.131Z,2.47
2022-12-08T15:26:48.978Z,2.47
2022-12-08T15:29:27.456Z,2.48
2022-12-08T15:31:59.386Z,2.45
2022-12-08T15:34:25.983Z,2.42
2022-12-08T15:36:54.701Z,2.44
2022-12-08T15:39:36.059Z,2.43
2022-12-08T15:42:04.732Z,2.48
2022-12-08T15:44:32.555Z,2.47
2022-12-08T15:46:59.882Z,2.51
2022-12-08T15:49:26.870Z,2.53
2022-12-08T15:52:01.969Z,2.54
2022-12-08T15:54:36.879Z,2.59
2022-12-08T15:57:18.989Z,2.58
2022-12-08T15:59:45.972Z,2.63
2022-12-08T16:02:17.933Z,2.62
2022-12-08T16:05:33.377Z,2.57
2022-12-08T16:07:37.951Z,2.48
2022-12-08T16:10:06.496Z,2.46
2022-12-08T16:15:58.520Z,2.41
2022-12-08T16:18:29.857Z,2.38
2022-12-08T16:23:44.548Z,2.30
2022-12-08T16:26:28.482Z,2.24
2022-12-08T16:29:01.882Z,2.21
2022-12-08T16:31:28.286Z,2.17
2022-12-08T16:33:54.682Z,2.11
2022-12-08T16:36:21.012Z,2.09
2022-12-08T16:38:47.382Z,2.06
2022-12-08T16:41:33.695Z,1.99
2022-12-08T16:44:06.013Z,1.95
2022-12-08T16:46:32.670Z,1.93
2022-12-08T16:48:59.172Z,1.91
2022-12-08T16:51:27.204Z,1.90
2022-12-08T16:53:58.319Z,1.91
2022-12-08T16:56:31.912Z,1.92
2022-12-08T16:58:59.441Z,1.93
2022-12-08T17:01:25.957Z,1.94
2022-12-08T17:04:22.522Z,1.96
2022-12-08T17:06:38.820Z,1.96
2022-12-08T17:09:05.337Z,2.00
2022-12-08T17:11:37.449Z,2.02
2022-12-08T17:14:09.047Z,1.99
2022-12-08T17:16:35.410Z,2.04
2022-12-08T17:19:01.815Z,1.99
2022-12-08T17:21:28.241Z,1.96
2022-12-08T17:23:54.739Z,1.92
2022-12-08T17:26:21.085Z,1.90
2022-12-08T17:29:02.758Z,1.87
2022-12-08T17:31:31.776Z,1.82
2022-12-08T17:34:03.257Z,1.78
2022-12-08T17:36:29.850Z,1.74
2022-12-08T17:38:58.500Z,1.72
2022-12-08T17:41:24.828Z,1.65
2022-12-08T17:43:51.215Z,1.67
2022-12-08T17:46:21.334Z,1.61
2022-12-08T17:48:48.095Z,1.60
2022-12-08T17:51:15.292Z,1.56
2022-12-08T17:53:41.755Z,1.51
2022-12-08T17:56:17.384Z,1.45
2022-12-08T17:58:43.877Z,1.43
2022-12-08T18:01:11.661Z,1.43
2022-12-08T18:03:38.847Z,1.44
2022-12-08T18:06:11.365Z,1.42
2022-12-08T18:08:38.240Z,1.43
2022-12-08T18:11:05.808Z,1.45
2022-12-08T18:13:32.149Z,1.45
2022-12-08T18:15:58.560Z,1.41
2022-12-08T18:18:25.013Z,1.38
2022-12-08T18:20:51.461Z,1.37
2022-12-08T18:23:18.592Z,1.32
2022-12-08T18:25:45.191Z,1.31
2022-12-08T18:28:11.618Z,1.30
2022-12-08T18:30:39.556Z,1.30
2022-12-08T18:33:07.576Z,1.35
2022-12-08T18:35:34.133Z,1.35
2022-12-08T18:38:00.530Z,1.35
2022-12-08T18:40:27.982Z,1.31
2022-12-08T18:42:54.645Z,1.26
2022-12-08T18:45:22.679Z,1.22
2022-12-08T18:47:50.963Z,1.20
2022-12-08T18:50:17.863Z,1.15
2022-12-08T18:52:45.695Z,1.12
2022-12-08T18:55:12.652Z,1.11
2022-12-08T18:57:42.332Z,1.09
2022-12-08T19:00:12.208Z,1.03
2022-12-08T19:02:39.762Z,1.00
2022-12-08T19:05:07.757Z,1.01
2022-12-08T19:07:34.588Z,1.06
2022-12-08T19:10:01.003Z,1.11
2022-12-08T19:12:27.461Z,1.13
2022-12-08T19:14:53.967Z,1.17
2022-12-08T19:17:21.067Z,1.18
2022-12-08T19:19:47.621Z,1.17
2022-12-08T19:22:14.186Z,1.18
2022-12-08T19:24:40.628Z,1.20
2022-12-08T19:27:07.227Z,1.24
2022-12-08T19:29:33.761Z,1.27
2022-12-08T19:32:00.388Z,1.30
2022-12-08T19:34:26.838Z,1.31
2022-12-08T19:36:53.275Z,1.33
2022-12-08T19:39:40.729Z,1.36
2022-12-08T19:42:33.842Z,1.35
2022-12-08T19:45:05.843Z,1.36
2022-12-08T19:47:32.321Z,1.35
2022-12-08T19:50:17.358Z,1.37
2022-12-08T19:52:44.805Z,1.38
2022-12-08T19:55:11.796Z,1.40
2022-12-08T19:57:38.414Z,1.40
2022-12-08T20:00:07.208Z,1.40
2022-12-08T20:02:33.761Z,1.42
2022-12-08T20:05:00.323Z,1.44
2022-12-08T20:07:26.785Z,1.46
2022-12-08T20:09:53.219Z,1.48
2022-12-08T20:12:19.574Z,1.49
2022-12-08T20:14:46.405Z,1.50
2022-12-08T20:17:12.998Z,1.52
2022-12-08T20:19:39.460Z,1.56
2022-12-08T20:22:05.894Z,1.55
2022-12-08T20:24:32.251Z,1.54
2022-12-08T20:26:58.698Z,1.54
2022-12-08T20:29:25.074Z,1.59
2022-12-08T20:31:51.568Z,1.62
2022-12-08T20:34:19.226Z,1.63
2022-12-08T20:36:46.195Z,1.64
2022-12-08T20:39:14.190Z,1.68
2022-12-08T20:41:41.927Z,1.68
2022-12-08T20:44:08.838Z,1.71
2022-12-08T20:46:35.344Z,1.74
2022-12-08T20:49:03.940Z,1.78
2022-12-08T20:51:32.299Z,1.80
2022-12-08T20:53:59.260Z,1.79
2022-12-08T20:56:26.761Z,1.81
2022-12-08T20:58:53.922Z,1.81
2022-12-08T21:01:22.697Z,1.82
2022-12-08T21:03:49.910Z,1.84
2022-12-08T21:06:16.636Z,1.84
2022-12-08T21:08:43.098Z,1.86
2022-12-08T21:11:10.098Z,1.82
2022-12-08T21:13:37.315Z,1.84
2022-12-08T21:16:04.918Z,1.89
2022-12-08T21:18:39.015Z,1.92
2022-12-08T21:21:13.992Z,1.90
2022-12-08T21:23:42.398Z,1.87
2022-12-08T21:26:13.426Z,1.86
2022-12-08T21:28:40.060Z,1.84
2022-12-08T21:31:11.741Z,1.80
2022-12-08T21:33:38.853Z,1.78
2022-12-08T21:36:09.449Z,1.79
2022-12-08T21:38:37.504Z,1.79
2022-12-08T21:41:13.300Z,1.80
2022-12-08T21:43:40.102Z,1.81
2022-12-08T21:46:06.669Z,1.84
2022-12-08T21:48:33.363Z,1.87
2022-12-08T21:51:04.880Z,1.90
2022-12-08T21:53:31.414Z,1.88
2022-12-08T21:55:57.802Z,1.90
2022-12-08T21:58:24.224Z,1.92
2022-12-08T22:00:50.730Z,1.93
2022-12-08T22:03:17.435Z,1.90
2022-12-08T22:05:44.062Z,1.91
2022-12-08T22:08:10.716Z,1.90
2022-12-08T22:10:38.348Z,1.90
2022-12-08T22:13:04.965Z,1.89
2022-12-08T22:15:32.638Z,1.92
2022-12-08T22:17:59.215Z,1.92
2022-12-08T22:20:25.719Z,1.94
2022-12-08T22:22:52.049Z,1.95
2022-12-08T22:25:18.461Z,1.97
2022-12-08T22:27:44.843Z,1.97
2022-12-08T22:30:12.131Z,1.96
2022-12-08T22:32:38.902Z,1.96
2022-12-08T22:35:05.852Z,1.97
2022-12-08T22:37:32.309Z,1.98
2022-12-08T22:39:58.709Z,2.03
2022-12-08T22:42:25.144Z,2.02
2022-12-08T22:44:51.488Z,2.06
2022-12-08T22:47:17.838Z,2.04
2022-12-08T22:49:44.167Z,2.05
2022-12-08T22:52:10.570Z,2.04
2022-12-08T22:54:36.921Z,2.05
2022-12-08T22:57:03.693Z,1.99
2022-12-08T22:59:30.431Z,1.96
2022-12-08T23:01:56.893Z,1.92
2022-12-08T23:04:23.464Z,1.91
2022-12-08T23:06:50.303Z,1.90
2022-12-08T23:09:17.056Z,1.88
2022-12-08T23:11:44.168Z,1.83
2022-12-08T23:14:10.723Z,1.82
2022-12-08T23:16:37.634Z,1.78
2022-12-08T23:19:04.213Z,1.77
2022-12-08T23:21:30.767Z,1.75
2022-12-08T23:23:57.264Z,1.72
2022-12-08T23:26:26.837Z,1.70
2022-12-08T23:28:54.149Z,1.70
2022-12-08T23:31:20.974Z,1.72
2022-12-08T23:33:48.120Z,1.73
2022-12-08T23:36:16.581Z,1.72
2022-12-08T23:38:43.805Z,1.67
2022-12-08T23:41:12.577Z,1.65
2022-12-08T23:43:44.320Z,1.66
2022-12-08T23:46:11.006Z,1.64
2022-12-08T23:48:37.465Z,1.65
2022-12-08T23:51:03.900Z,1.66
2022-12-08T23:53:31.549Z,1.65
2022-12-08T23:56:00.349Z,1.61
2022-12-08T23:58:26.961Z,1.56
